sensor_id;sensor_type;location;lat;lon;timestamp;pressure;altitude;pressure_sealevel;temperature;humidity
67052;BME280;53957;47.222;18.670;2022-08-21T00:00:47;99701.06;;;18.18;100.00
67052;BME280;53957;47.222;18.670;2022-08-21T00:03:51;99703.44;;;18.20;100.00
67052;BME280;53957;47.222;18.670;2022-08-21T00:06:53;99696.28;;;18.28;100.00
67052;BME280;53957;47.222;18.670;2022-08-21T00:09:56;99690.53;;;18.29;100.00
67052;BME280;53957;47.222;18.670;2022-08-21T00:13:06;99694.28;;;18.25;100.00
67052;BME280;53957;47.222;18.670;2022-08-21T00:16:09;99686.78;;;18.18;100.00
67052;BME280;53957;47.222;18.670;2022-08-21T00:19:12;99684.44;;;18.16;100.00
67052;BME280;53957;47.222;18.670;2022-08-21T00:22:15;99689.41;;;18.14;100.00
67052;BME280;53957;47.222;18.670;2022-08-21T00:25:20;99694.22;;;18.21;100.00
67052;BME280;53957;47.222;18.670;2022-08-21T00:28:27;99687.47;;;18.15;100.00
67052;BME280;53957;47.222;18.670;2022-08-21T00:31:30;99690.97;;;18.15;100.00
67052;BME280;53957;47.222;18.670;2022-08-21T00:34:34;99679.81;;;18.17;100.00
67052;BME280;53957;47.222;18.670;2022-08-21T00:37:38;99665.87;;;18.15;100.00
67052;BME280;53957;47.222;18.670;2022-08-21T00:40:48;99670.59;;;18.18;100.00
67052;BME280;53957;47.222;18.670;2022-08-21T00:43:52;99671.38;;;18.18;100.00
67052;BME280;53957;47.222;18.670;2022-08-21T00:46:55;99678.03;;;18.21;100.00
67052;BME280;53957;47.222;18.670;2022-08-21T00:49:58;99663.53;;;18.13;100.00
67052;BME280;53957;47.222;18.670;2022-08-21T00:53:02;99679.06;;;18.16;100.00
67052;BME280;53957;47.222;18.670;2022-08-21T00:56:07;99667.63;;;18.07;100.00
67052;BME280;53957;47.222;18.670;2022-08-21T00:59:13;99666.44;;;18.21;100.00
67052;BME280;53957;47.222;18.670;2022-08-21T01:02:17;99683.66;;;18.16;100.00
67052;BME280;53957;47.222;18.670;2022-08-21T01:05:20;99675.13;;;18.14;100.00
67052;BME280;53957;47.222;18.670;2022-08-21T01:08:23;99673.91;;;18.11;100.00
67052;BME280;53957;47.222;18.670;2022-08-21T01:11:27;99665.87;;;18.15;100.00
67052;BME280;53957;47.222;18.670;2022-08-21T01:14:30;99657.78;;;18.15;100.00
67052;BME280;53957;47.222;18.670;2022-08-21T01:17:34;99659.28;;;18.12;100.00
67052;BME280;53957;47.222;18.670;2022-08-21T01:20:41;99664.06;;;18.19;100.00
67052;BME280;53957;47.222;18.670;2022-08-21T01:23:50;99672.44;;;18.14;100.00
67052;BME280;53957;47.222;18.670;2022-08-21T01:26:53;99677.03;;;18.13;100.00
67052;BME280;53957;47.222;18.670;2022-08-21T01:30:04;99670.16;;;18.16;100.00
67052;BME280;53957;47.222;18.670;2022-08-21T01:33:10;99668.84;;;18.26;100.00
67052;BME280;53957;47.222;18.670;2022-08-21T01:36:13;99663.03;;;18.24;100.00
67052;BME280;53957;47.222;18.670;2022-08-21T01:39:16;99655.63;;;18.21;100.00
67052;BME280;53957;47.222;18.670;2022-08-21T01:42:19;99651.44;;;18.23;100.00
67052;BME280;53957;47.222;18.670;2022-08-21T01:45:21;99652.56;;;18.22;100.00
67052;BME280;53957;47.222;18.670;2022-08-21T01:48:24;99662.59;;;18.22;100.00
67052;BME280;53957;47.222;18.670;2022-08-21T01:51:27;99650.50;;;18.31;100.00
67052;BME280;53957;47.222;18.670;2022-08-21T01:54:30;99650.41;;;18.28;100.00
67052;BME280;53957;47.222;18.670;2022-08-21T01:57:33;99650.13;;;18.17;100.00
67052;BME280;53957;47.222;18.670;2022-08-21T02:00:37;99643.97;;;18.16;100.00
67052;BME280;53957;47.222;18.670;2022-08-21T02:03:40;99633.16;;;18.16;100.00
67052;BME280;53957;47.222;18.670;2022-08-21T02:06:43;99640.91;;;18.18;100.00
67052;BME280;53957;47.222;18.670;2022-08-21T02:09:46;99641.59;;;18.15;100.00
67052;BME280;53957;47.222;18.670;2022-08-21T02:12:49;99632.56;;;18.23;100.00
67052;BME280;53957;47.222;18.670;2022-08-21T02:15:52;99645.44;;;18.14;100.00
67052;BME280;53957;47.222;18.670;2022-08-21T02:18:55;99644.66;;;18.13;100.00
67052;BME280;53957;47.222;18.670;2022-08-21T02:21:58;99627.41;;;18.18;100.00
67052;BME280;53957;47.222;18.670;2022-08-21T02:25:01;99638.22;;;18.18;100.00
67052;BME280;53957;47.222;18.670;2022-08-21T02:28:07;99637.78;;;18.16;100.00
67052;BME280;53957;47.222;18.670;2022-08-21T02:31:11;99632.28;;;18.12;100.00
67052;BME280;53957;47.222;18.670;2022-08-21T02:34:14;99640.56;;;18.03;100.00
67052;BME280;53957;47.222;18.670;2022-08-21T02:37:16;99632.12;;;18.05;100.00
67052;BME280;53957;47.222;18.670;2022-08-21T02:40:23;99635.06;;;18.16;100.00
67052;BME280;53957;47.222;18.670;2022-08-21T02:43:27;99625.94;;;18.05;100.00
67052;BME280;53957;47.222;18.670;2022-08-21T02:46:30;99633.16;;;18.00;100.00
67052;BME280;53957;47.222;18.670;2022-08-21T02:49:34;99624.00;;;17.89;100.00
67052;BME280;53957;47.222;18.670;2022-08-21T02:52:37;99622.16;;;17.93;100.00
67052;BME280;53957;47.222;18.670;2022-08-21T02:55:40;99624.66;;;17.86;100.00
67052;BME280;53957;47.222;18.670;2022-08-21T02:58:47;99626.06;;;17.80;100.00
67052;BME280;53957;47.222;18.670;2022-08-21T03:01:50;99631.91;;;17.82;100.00
67052;BME280;53957;47.222;18.670;2022-08-21T03:04:53;99627.53;;;17.77;100.00
67052;BME280;53957;47.222;18.670;2022-08-21T03:07:55;99619.53;;;17.81;100.00
67052;BME280;53957;47.222;18.670;2022-08-21T03:10:58;99622.81;;;17.74;100.00
67052;BME280;53957;47.222;18.670;2022-08-21T03:14:03;99620.28;;;17.65;100.00
67052;BME280;53957;47.222;18.670;2022-08-21T03:17:07;99628.03;;;17.67;100.00
67052;BME280;53957;47.222;18.670;2022-08-21T03:20:10;99628.31;;;17.78;100.00
67052;BME280;53957;47.222;18.670;2022-08-21T03:23:15;99638.66;;;17.76;100.00
67052;BME280;53957;47.222;18.670;2022-08-21T03:26:21;99623.25;;;17.76;100.00
67052;BME280;53957;47.222;18.670;2022-08-21T03:29:24;99625.19;;;17.76;100.00
67052;BME280;53957;47.222;18.670;2022-08-21T03:32:28;99634.84;;;17.77;100.00
67052;BME280;53957;47.222;18.670;2022-08-21T03:35:31;99638.41;;;17.81;100.00
67052;BME280;53957;47.222;18.670;2022-08-21T03:38:36;99637.81;;;17.87;100.00
67052;BME280;53957;47.222;18.670;2022-08-21T03:41:38;99637.25;;;17.94;100.00
67052;BME280;53957;47.222;18.670;2022-08-21T03:44:41;99628.69;;;17.92;100.00
67052;BME280;53957;47.222;18.670;2022-08-21T03:48:10;99632.19;;;17.93;100.00
67052;BME280;53957;47.222;18.670;2022-08-21T03:51:14;99645.19;;;18.03;100.00
67052;BME280;53957;47.222;18.670;2022-08-21T03:54:18;99630.25;;;17.93;100.00
67052;BME280;53957;47.222;18.670;2022-08-21T03:57:21;99639.94;;;17.94;100.00
67052;BME280;53957;47.222;18.670;2022-08-21T04:00:25;99632.03;;;18.01;100.00
67052;BME280;53957;47.222;18.670;2022-08-21T04:03:29;99639.69;;;17.99;100.00
67052;BME280;53957;47.222;18.670;2022-08-21T04:06:32;99644.88;;;17.92;100.00
67052;BME280;53957;47.222;18.670;2022-08-21T04:09:39;99643.75;;;17.93;100.00
67052;BME280;53957;47.222;18.670;2022-08-21T04:12:42;99640.19;;;17.89;100.00
67052;BME280;53957;47.222;18.670;2022-08-21T04:15:45;99640.47;;;18.00;100.00
67052;BME280;53957;47.222;18.670;2022-08-21T04:18:47;99636.31;;;17.90;100.00
67052;BME280;53957;47.222;18.670;2022-08-21T04:21:50;99644.00;;;17.88;100.00
67052;BME280;53957;47.222;18.670;2022-08-21T04:24:54;99656.47;;;17.93;100.00
67052;BME280;53957;47.222;18.670;2022-08-21T04:27:57;99651.66;;;17.86;100.00
67052;BME280;53957;47.222;18.670;2022-08-21T04:31:00;99651.84;;;17.93;100.00
67052;BME280;53957;47.222;18.670;2022-08-21T04:34:05;99649.34;;;18.00;100.00
67052;BME280;53957;47.222;18.670;2022-08-21T04:37:07;99650.31;;;18.08;100.00
67052;BME280;53957;47.222;18.670;2022-08-21T04:40:12;99655.34;;;18.10;100.00
67052;BME280;53957;47.222;18.670;2022-08-21T04:43:15;99656.06;;;18.07;100.00
67052;BME280;53957;47.222;18.670;2022-08-21T04:46:18;99659.19;;;18.09;100.00
67052;BME280;53957;47.222;18.670;2022-08-21T04:49:21;99657.37;;;18.13;100.00
67052;BME280;53957;47.222;18.670;2022-08-21T04:52:25;99666.59;;;18.28;100.00
67052;BME280;53957;47.222;18.670;2022-08-21T04:55:27;99662.25;;;18.23;100.00
67052;BME280;53957;47.222;18.670;2022-08-21T04:58:31;99675.91;;;18.30;100.00
67052;BME280;53957;47.222;18.670;2022-08-21T05:01:36;99678.16;;;18.28;100.00
67052;BME280;53957;47.222;18.670;2022-08-21T05:04:47;99673.22;;;18.30;100.00
67052;BME280;53957;47.222;18.670;2022-08-21T05:07:53;99677.94;;;18.33;100.00
67052;BME280;53957;47.222;18.670;2022-08-21T05:10:56;99676.97;;;18.42;100.00
67052;BME280;53957;47.222;18.670;2022-08-21T05:14:02;99672.78;;;18.60;100.00
67052;BME280;53957;47.222;18.670;2022-08-21T05:17:09;99669.66;;;18.58;100.00
67052;BME280;53957;47.222;18.670;2022-08-21T05:20:13;99681.41;;;18.66;100.00
67052;BME280;53957;47.222;18.670;2022-08-21T05:23:16;99687.50;;;18.47;100.00
67052;BME280;53957;47.222;18.670;2022-08-21T05:26:19;99678.78;;;18.70;100.00
67052;BME280;53957;47.222;18.670;2022-08-21T05:29:22;99681.66;;;18.77;100.00
67052;BME280;53957;47.222;18.670;2022-08-21T05:32:25;99674.50;;;18.85;100.00
67052;BME280;53957;47.222;18.670;2022-08-21T05:35:31;99679.81;;;18.97;100.00
67052;BME280;53957;47.222;18.670;2022-08-21T05:38:34;99666.94;;;19.10;100.00
67052;BME280;53957;47.222;18.670;2022-08-21T05:41:37;99662.28;;;19.26;100.00
67052;BME280;53957;47.222;18.670;2022-08-21T05:44:40;99671.09;;;19.23;100.00
67052;BME280;53957;47.222;18.670;2022-08-21T05:47:47;99667.09;;;19.17;100.00
67052;BME280;53957;47.222;18.670;2022-08-21T05:50:50;99668.97;;;19.33;100.00
67052;BME280;53957;47.222;18.670;2022-08-21T05:53:54;99672.66;;;19.63;100.00
67052;BME280;53957;47.222;18.670;2022-08-21T05:56:57;99663.22;;;19.54;100.00
67052;BME280;53957;47.222;18.670;2022-08-21T06:00:00;99670.81;;;19.48;100.00
67052;BME280;53957;47.222;18.670;2022-08-21T06:03:10;99667.56;;;19.39;100.00
67052;BME280;53957;47.222;18.670;2022-08-21T06:06:13;99673.44;;;19.44;100.00
67052;BME280;53957;47.222;18.670;2022-08-21T06:09:16;99675.66;;;19.58;100.00
67052;BME280;53957;47.222;18.670;2022-08-21T06:12:20;99675.50;;;19.71;100.00
67052;BME280;53957;47.222;18.670;2022-08-21T06:15:22;99673.34;;;20.00;100.00
67052;BME280;53957;47.222;18.670;2022-08-21T06:18:25;99677.19;;;19.99;100.00
67052;BME280;53957;47.222;18.670;2022-08-21T06:21:28;99682.28;;;20.00;100.00
67052;BME280;53957;47.222;18.670;2022-08-21T06:24:32;99684.19;;;19.80;99.80
67052;BME280;53957;47.222;18.670;2022-08-21T06:27:34;99685.44;;;20.06;99.43
67052;BME280;53957;47.222;18.670;2022-08-21T06:30:39;99695.97;;;20.11;100.00
67052;BME280;53957;47.222;18.670;2022-08-21T06:33:42;99693.78;;;19.77;100.00
67052;BME280;53957;47.222;18.670;2022-08-21T06:36:45;99699.06;;;19.90;100.00
67052;BME280;53957;47.222;18.670;2022-08-21T06:39:48;99700.94;;;19.86;99.66
67052;BME280;53957;47.222;18.670;2022-08-21T06:42:51;99703.69;;;20.09;99.80
67052;BME280;53957;47.222;18.670;2022-08-21T06:45:54;99713.31;;;20.30;100.00
67052;BME280;53957;47.222;18.670;2022-08-21T06:48:58;99700.44;;;20.46;97.44
67052;BME280;53957;47.222;18.670;2022-08-21T06:52:01;99696.47;;;20.63;97.04
67052;BME280;53957;47.222;18.670;2022-08-21T06:55:07;99698.25;;;20.79;95.85
67052;BME280;53957;47.222;18.670;2022-08-21T06:58:11;99699.78;;;21.03;94.03
67052;BME280;53957;47.222;18.670;2022-08-21T07:01:14;99699.62;;;20.92;95.07
67052;BME280;53957;47.222;18.670;2022-08-21T07:04:17;99702.91;;;20.78;96.00
67052;BME280;53957;47.222;18.670;2022-08-21T07:07:20;99693.16;;;21.31;94.43
67052;BME280;53957;47.222;18.670;2022-08-21T07:10:24;99691.03;;;21.17;95.01
67052;BME280;53957;47.222;18.670;2022-08-21T07:13:28;99693.53;;;21.60;93.88
67052;BME280;53957;47.222;18.670;2022-08-21T07:16:31;99694.38;;;22.43;90.54
67052;BME280;53957;47.222;18.670;2022-08-21T07:19:34;99692.97;;;22.63;88.22
67052;BME280;53957;47.222;18.670;2022-08-21T07:22:37;99693.59;;;22.42;89.92
67052;BME280;53957;47.222;18.670;2022-08-21T07:25:40;99692.25;;;21.84;91.66
67052;BME280;53957;47.222;18.670;2022-08-21T07:28:43;99675.50;;;22.19;86.84
67052;BME280;53957;47.222;18.670;2022-08-21T07:31:46;99689.03;;;22.54;88.45
67052;BME280;53957;47.222;18.670;2022-08-21T07:34:49;99683.28;;;22.17;88.25
67052;BME280;53957;47.222;18.670;2022-08-21T07:37:52;99680.13;;;22.15;88.28
67052;BME280;53957;47.222;18.670;2022-08-21T07:40:56;99681.03;;;22.30;86.59
67052;BME280;53957;47.222;18.670;2022-08-21T07:44:02;99687.22;;;22.24;89.03
67052;BME280;53957;47.222;18.670;2022-08-21T07:47:08;99678.56;;;22.14;89.71
67052;BME280;53957;47.222;18.670;2022-08-21T07:50:12;99684.88;;;22.26;89.43
67052;BME280;53957;47.222;18.670;2022-08-21T07:53:15;99678.50;;;22.07;90.17
67052;BME280;53957;47.222;18.670;2022-08-21T07:56:19;99673.00;;;22.00;89.87
67052;BME280;53957;47.222;18.670;2022-08-21T07:59:22;99668.41;;;22.04;90.71
67052;BME280;53957;47.222;18.670;2022-08-21T08:02:28;99666.91;;;22.10;90.12
67052;BME280;53957;47.222;18.670;2022-08-21T08:05:32;99657.47;;;21.97;88.69
67052;BME280;53957;47.222;18.670;2022-08-21T08:08:35;99663.59;;;21.90;90.57
67052;BME280;53957;47.222;18.670;2022-08-21T08:11:58;99660.19;;;21.97;88.51
67052;BME280;53957;47.222;18.670;2022-08-21T08:15:02;99668.19;;;22.24;90.68
67052;BME280;53957;47.222;18.670;2022-08-21T08:18:05;99669.78;;;22.77;89.47
67052;BME280;53957;47.222;18.670;2022-08-21T08:21:09;99670.06;;;22.68;87.28
67052;BME280;53957;47.222;18.670;2022-08-21T08:24:13;99654.78;;;23.12;84.82
67052;BME280;53957;47.222;18.670;2022-08-21T08:27:20;99660.88;;;22.83;86.34
67052;BME280;53957;47.222;18.670;2022-08-21T08:30:23;99662.00;;;22.79;86.25
67052;BME280;53957;47.222;18.670;2022-08-21T08:33:26;99668.91;;;22.65;88.38
67052;BME280;53957;47.222;18.670;2022-08-21T08:36:34;99664.22;;;22.62;88.99
67052;BME280;53957;47.222;18.670;2022-08-21T08:39:37;99671.72;;;22.28;90.24
67052;BME280;53957;47.222;18.670;2022-08-21T08:42:41;99662.94;;;22.00;89.79
67052;BME280;53957;47.222;18.670;2022-08-21T08:45:48;99658.16;;;21.90;90.16
67052;BME280;53957;47.222;18.670;2022-08-21T08:48:57;99663.22;;;21.88;90.40
67052;BME280;53957;47.222;18.670;2022-08-21T08:52:16;99668.00;;;22.02;89.70
67052;BME280;53957;47.222;18.670;2022-08-21T08:55:43;99670.78;;;22.09;91.61
67052;BME280;53957;47.222;18.670;2022-08-21T08:58:46;99669.41;;;22.33;89.73
67052;BME280;53957;47.222;18.670;2022-08-21T09:01:50;99667.22;;;22.46;90.43
67052;BME280;53957;47.222;18.670;2022-08-21T09:04:54;99669.53;;;22.44;90.17
67052;BME280;53957;47.222;18.670;2022-08-21T09:08:38;99664.72;;;22.27;90.06
67052;BME280;53957;47.222;18.670;2022-08-21T09:26:23;99655.97;;;23.14;86.95
67052;BME280;53957;47.222;18.670;2022-08-21T09:29:30;99652.78;;;22.94;87.67
67052;BME280;53957;47.222;18.670;2022-08-21T09:32:36;99654.25;;;22.81;85.90
67052;BME280;53957;47.222;18.670;2022-08-21T09:35:51;99663.06;;;22.60;88.46
67052;BME280;53957;47.222;18.670;2022-08-21T09:38:54;99654.53;;;22.65;86.12
67052;BME280;53957;47.222;18.670;2022-08-21T09:42:03;99653.00;;;22.67;89.32
67052;BME280;53957;47.222;18.670;2022-08-21T09:45:12;99646.38;;;22.61;88.17
67052;BME280;53957;47.222;18.670;2022-08-21T09:51:24;99642.59;;;22.80;89.37
67052;BME280;53957;47.222;18.670;2022-08-21T09:54:37;99647.19;;;22.73;86.77
67052;BME280;53957;47.222;18.670;2022-08-21T09:57:44;99653.88;;;22.30;89.49
67052;BME280;53957;47.222;18.670;2022-08-21T10:00:58;99652.00;;;22.38;89.45
67052;BME280;53957;47.222;18.670;2022-08-21T10:04:05;99646.66;;;22.00;90.33
67052;BME280;53957;47.222;18.670;2022-08-21T10:07:13;99647.31;;;22.35;91.23
67052;BME280;53957;47.222;18.670;2022-08-21T10:10:23;99637.03;;;22.59;89.19
67052;BME280;53957;47.222;18.670;2022-08-21T10:20:06;99637.19;;;22.88;87.58
67052;BME280;53957;47.222;18.670;2022-08-21T10:23:42;99641.44;;;22.85;88.42
67052;BME280;53957;47.222;18.670;2022-08-21T10:30:19;99642.66;;;22.35;89.71
67052;BME280;53957;47.222;18.670;2022-08-21T10:53:41;99642.63;;;22.32;91.25
67052;BME280;53957;47.222;18.670;2022-08-21T10:56:47;99630.19;;;22.31;90.73
67052;BME280;53957;47.222;18.670;2022-08-21T11:00:02;99632.03;;;22.16;91.45
67052;BME280;53957;47.222;18.670;2022-08-21T11:03:13;99623.59;;;22.28;92.05
67052;BME280;53957;47.222;18.670;2022-08-21T11:06:25;99626.84;;;22.45;90.42
67052;BME280;53957;47.222;18.670;2022-08-21T11:09:30;99627.03;;;22.22;90.12
67052;BME280;53957;47.222;18.670;2022-08-21T11:12:47;99636.81;;;22.30;90.69
67052;BME280;53957;47.222;18.670;2022-08-21T11:16:27;99628.53;;;22.15;92.49
67052;BME280;53957;47.222;18.670;2022-08-21T11:20:07;99629.38;;;22.23;92.40
67052;BME280;53957;47.222;18.670;2022-08-21T11:27:05;99625.00;;;22.11;93.08
67052;BME280;53957;47.222;18.670;2022-08-21T11:30:10;99621.59;;;22.22;92.31
67052;BME280;53957;47.222;18.670;2022-08-21T11:40:05;99617.97;;;22.03;92.79
67052;BME280;53957;47.222;18.670;2022-08-21T11:50:37;99618.63;;;21.93;93.86
67052;BME280;53957;47.222;18.670;2022-08-21T11:53:42;99610.47;;;21.89;93.59
67052;BME280;53957;47.222;18.670;2022-08-21T11:57:24;99609.66;;;21.85;94.19
67052;BME280;53957;47.222;18.670;2022-08-21T12:00:31;99603.88;;;21.90;93.38
67052;BME280;53957;47.222;18.670;2022-08-21T12:03:40;99605.78;;;21.86;92.90
67052;BME280;53957;47.222;18.670;2022-08-21T12:06:47;99599.88;;;21.77;93.63
67052;BME280;53957;47.222;18.670;2022-08-21T12:09:55;99605.31;;;21.77;94.18
67052;BME280;53957;47.222;18.670;2022-08-21T12:13:51;99606.03;;;21.70;94.91
67052;BME280;53957;47.222;18.670;2022-08-21T12:16:45;99599.06;;;21.73;94.89
67052;BME280;53957;47.222;18.670;2022-08-21T12:19:59;99611.78;;;21.65;96.84
67052;BME280;53957;47.222;18.670;2022-08-21T12:26:34;99606.78;;;21.70;94.55
67052;BME280;53957;47.222;18.670;2022-08-21T12:29:37;99611.41;;;21.66;92.31
67052;BME280;53957;47.222;18.670;2022-08-21T12:35:44;99599.91;;;21.80;93.64
67052;BME280;53957;47.222;18.670;2022-08-21T12:38:51;99595.25;;;21.77;94.83
67052;BME280;53957;47.222;18.670;2022-08-21T12:42:06;99592.22;;;21.86;94.46
67052;BME280;53957;47.222;18.670;2022-08-21T12:45:19;99592.97;;;21.83;93.12
67052;BME280;53957;47.222;18.670;2022-08-21T12:48:28;99590.53;;;21.74;93.21
67052;BME280;53957;47.222;18.670;2022-08-21T12:51:56;99589.00;;;21.73;92.85
67052;BME280;53957;47.222;18.670;2022-08-21T12:54:59;99589.06;;;21.80;91.13
67052;BME280;53957;47.222;18.670;2022-08-21T12:58:04;99592.91;;;21.76;92.96
67052;BME280;53957;47.222;18.670;2022-08-21T13:07:36;99597.28;;;21.91;94.38
67052;BME280;53957;47.222;18.670;2022-08-21T13:10:41;99588.97;;;21.69;93.57
67052;BME280;53957;47.222;18.670;2022-08-21T13:13:48;99586.56;;;21.61;93.96
67052;BME280;53957;47.222;18.670;2022-08-21T13:16:55;99581.53;;;21.63;93.20
67052;BME280;53957;47.222;18.670;2022-08-21T13:20:05;99578.53;;;21.75;94.26
67052;BME280;53957;47.222;18.670;2022-08-21T13:23:38;99569.56;;;21.67;94.02
67052;BME280;53957;47.222;18.670;2022-08-21T13:26:41;99570.75;;;21.70;93.71
67052;BME280;53957;47.222;18.670;2022-08-21T13:29:44;99574.56;;;21.65;94.76
67052;BME280;53957;47.222;18.670;2022-08-21T13:32:58;99571.81;;;21.62;93.79
67052;BME280;53957;47.222;18.670;2022-08-21T13:36:09;99570.56;;;21.55;94.62
67052;BME280;53957;47.222;18.670;2022-08-21T13:39:16;99574.87;;;21.57;94.43
67052;BME280;53957;47.222;18.670;2022-08-21T13:42:20;99560.81;;;21.47;94.23
67052;BME280;53957;47.222;18.670;2022-08-21T13:45:32;99569.28;;;21.42;95.17
67052;BME280;53957;47.222;18.670;2022-08-21T13:48:36;99573.78;;;21.61;94.60
67052;BME280;53957;47.222;18.670;2022-08-21T13:51:39;99567.25;;;21.69;95.38
67052;BME280;53957;47.222;18.670;2022-08-21T13:54:43;99575.78;;;21.71;96.69
67052;BME280;53957;47.222;18.670;2022-08-21T13:57:59;99569.44;;;21.57;97.25
67052;BME280;53957;47.222;18.670;2022-08-21T14:01:03;99580.44;;;21.71;98.25
67052;BME280;53957;47.222;18.670;2022-08-21T14:04:24;99578.84;;;21.66;97.92
67052;BME280;53957;47.222;18.670;2022-08-21T14:07:38;99572.91;;;21.53;100.00
67052;BME280;53957;47.222;18.670;2022-08-21T14:10:46;99571.78;;;21.58;99.18
67052;BME280;53957;47.222;18.670;2022-08-21T14:14:04;99577.91;;;21.51;99.48
67052;BME280;53957;47.222;18.670;2022-08-21T14:17:16;99574.59;;;21.31;100.00
67052;BME280;53957;47.222;18.670;2022-08-21T14:20:36;99574.16;;;21.26;100.00
67052;BME280;53957;47.222;18.670;2022-08-21T14:23:39;99566.59;;;21.08;98.76
67052;BME280;53957;47.222;18.670;2022-08-21T14:26:48;99573.38;;;21.25;98.80
67052;BME280;53957;47.222;18.670;2022-08-21T14:30:16;99559.78;;;21.21;99.08
67052;BME280;53957;47.222;18.670;2022-08-21T14:33:27;99572.91;;;21.19;97.42
67052;BME280;53957;47.222;18.670;2022-08-21T14:36:30;99573.72;;;21.20;97.12
67052;BME280;53957;47.222;18.670;2022-08-21T14:39:33;99572.16;;;21.19;98.77
67052;BME280;53957;47.222;18.670;2022-08-21T14:42:37;99568.16;;;21.09;99.32
67052;BME280;53957;47.222;18.670;2022-08-21T14:45:40;99573.16;;;21.07;99.08
67052;BME280;53957;47.222;18.670;2022-08-21T14:48:44;99575.88;;;21.07;99.68
67052;BME280;53957;47.222;18.670;2022-08-21T14:51:46;99577.91;;;20.83;100.00
67052;BME280;53957;47.222;18.670;2022-08-21T14:54:56;99571.66;;;20.79;100.00
67052;BME280;53957;47.222;18.670;2022-08-21T14:58:00;99582.69;;;20.94;100.00
67052;BME280;53957;47.222;18.670;2022-08-21T15:01:05;99572.50;;;20.83;100.00
67052;BME280;53957;47.222;18.670;2022-08-21T15:04:08;99571.25;;;20.77;100.00
67052;BME280;53957;47.222;18.670;2022-08-21T15:07:11;99571.50;;;20.68;100.00
67052;BME280;53957;47.222;18.670;2022-08-21T15:10:14;99569.34;;;20.51;100.00
67052;BME280;53957;47.222;18.670;2022-08-21T15:13:17;99563.44;;;20.45;100.00
67052;BME280;53957;47.222;18.670;2022-08-21T15:16:21;99562.78;;;20.25;100.00
67052;BME280;53957;47.222;18.670;2022-08-21T15:19:24;99575.69;;;20.35;100.00
67052;BME280;53957;47.222;18.670;2022-08-21T15:22:27;99567.63;;;20.39;100.00
67052;BME280;53957;47.222;18.670;2022-08-21T15:25:30;99561.41;;;20.11;100.00
67052;BME280;53957;47.222;18.670;2022-08-21T15:28:34;99562.50;;;20.07;100.00
67052;BME280;53957;47.222;18.670;2022-08-21T15:31:50;99561.25;;;20.01;100.00
67052;BME280;53957;47.222;18.670;2022-08-21T15:34:54;99559.16;;;19.90;100.00
67052;BME280;53957;47.222;18.670;2022-08-21T15:37:58;99564.72;;;20.01;100.00
67052;BME280;53957;47.222;18.670;2022-08-21T15:41:02;99551.25;;;19.82;100.00
67052;BME280;53957;47.222;18.670;2022-08-21T15:44:09;99557.97;;;19.91;100.00
67052;BME280;53957;47.222;18.670;2022-08-21T15:47:21;99555.81;;;19.77;100.00
67052;BME280;53957;47.222;18.670;2022-08-21T15:50:25;99559.50;;;19.66;100.00
67052;BME280;53957;47.222;18.670;2022-08-21T15:53:28;99566.03;;;19.65;100.00
67052;BME280;53957;47.222;18.670;2022-08-21T15:56:39;99552.56;;;19.68;100.00
67052;BME280;53957;47.222;18.670;2022-08-21T15:59:47;99560.06;;;19.55;100.00
67052;BME280;53957;47.222;18.670;2022-08-21T16:02:53;99555.66;;;19.47;100.00
67052;BME280;53957;47.222;18.670;2022-08-21T16:05:57;99557.09;;;19.41;100.00
67052;BME280;53957;47.222;18.670;2022-08-21T16:09:00;99555.03;;;19.34;100.00
67052;BME280;53957;47.222;18.670;2022-08-21T16:12:05;99552.63;;;19.49;100.00
67052;BME280;53957;47.222;18.670;2022-08-21T16:15:09;99564.44;;;19.40;100.00
67052;BME280;53957;47.222;18.670;2022-08-21T16:18:22;99557.81;;;19.38;100.00
67052;BME280;53957;47.222;18.670;2022-08-21T16:21:25;99555.25;;;19.45;100.00
67052;BME280;53957;47.222;18.670;2022-08-21T16:24:28;99558.19;;;19.36;100.00
67052;BME280;53957;47.222;18.670;2022-08-21T16:27:31;99558.59;;;19.38;100.00
67052;BME280;53957;47.222;18.670;2022-08-21T16:30:40;99553.78;;;19.28;100.00
67052;BME280;53957;47.222;18.670;2022-08-21T16:33:51;99561.53;;;19.29;100.00
67052;BME280;53957;47.222;18.670;2022-08-21T16:36:59;99554.38;;;19.41;100.00
67052;BME280;53957;47.222;18.670;2022-08-21T16:40:02;99564.44;;;19.21;100.00
67052;BME280;53957;47.222;18.670;2022-08-21T16:43:06;99553.72;;;19.24;100.00
67052;BME280;53957;47.222;18.670;2022-08-21T16:46:11;99559.78;;;19.18;100.00
67052;BME280;53957;47.222;18.670;2022-08-21T16:49:14;99564.38;;;19.17;100.00
67052;BME280;53957;47.222;18.670;2022-08-21T16:52:17;99572.84;;;19.15;100.00
67052;BME280;53957;47.222;18.670;2022-08-21T16:55:21;99564.13;;;19.03;100.00
67052;BME280;53957;47.222;18.670;2022-08-21T16:58:35;99564.97;;;19.07;100.00
67052;BME280;53957;47.222;18.670;2022-08-21T17:01:39;99562.56;;;19.02;100.00
67052;BME280;53957;47.222;18.670;2022-08-21T17:04:42;99558.75;;;19.06;100.00
67052;BME280;53957;47.222;18.670;2022-08-21T17:07:45;99561.84;;;18.89;100.00
67052;BME280;53957;47.222;18.670;2022-08-21T17:10:48;99567.06;;;18.97;100.00
67052;BME280;53957;47.222;18.670;2022-08-21T17:13:52;99557.53;;;18.84;100.00
67052;BME280;53957;47.222;18.670;2022-08-21T17:16:55;99545.09;;;18.79;100.00
67052;BME280;53957;47.222;18.670;2022-08-21T17:19:58;99564.34;;;18.78;100.00
67052;BME280;53957;47.222;18.670;2022-08-21T17:23:01;99551.97;;;18.77;100.00